createdAt,value
2018-05-17T00:01:36.050Z,27.23
2018-05-17T00:04:04.125Z,20.20
2018-05-17T00:06:32.888Z,22.07
2018-05-17T00:09:01.042Z,25.20
2018-05-17T00:11:30.076Z,27.37
2018-05-17T00:13:58.193Z,26.53
2018-05-17T00:16:26.280Z,27.13
2018-05-17T00:18:56.076Z,15.63
2018-05-17T00:21:24.148Z,18.33
2018-05-17T00:23:52.247Z,24.97
2018-05-17T00:26:20.563Z,29.17
2018-05-17T00:28:48.687Z,20.33
2018-05-17T00:31:17.553Z,22.53
2018-05-17T00:33:45.640Z,25.83
2018-05-17T00:36:13.944Z,15.50
2018-05-17T00:38:42.085Z,17.70
2018-05-17T00:41:10.405Z,28.37
2018-05-17T00:43:38.544Z,24.53
2018-05-17T00:46:06.641Z,19.00
2018-05-17T00:48:34.761Z,17.40
2018-05-17T00:51:03.076Z,22.00
2018-05-17T00:53:32.831Z,22.53
2018-05-17T00:56:00.996Z,24.20
2018-05-17T00:58:33.272Z,29.40
2018-05-17T01:01:02.178Z,27.50
2018-05-17T01:03:30.250Z,33.33
2018-05-17T01:05:58.328Z,40.87
2018-05-17T01:08:26.428Z,34.00
2018-05-17T01:10:54.500Z,18.20
2018-05-17T01:13:22.828Z,24.07
2018-05-17T01:15:50.925Z,18.83
2018-05-17T01:18:20.155Z,25.17
2018-05-17T01:20:48.377Z,25.30
2018-05-17T01:23:18.000Z,20.23
2018-05-17T01:25:46.079Z,25.57
2018-05-17T01:28:14.804Z,24.17
2018-05-17T01:30:42.936Z,30.60
2018-05-17T01:33:11.943Z,24.13
2018-05-17T01:35:40.040Z,32.30
2018-05-17T01:38:26.400Z,24.60
2018-05-17T01:40:54.568Z,28.90
2018-05-17T01:43:22.667Z,29.67
2018-05-17T01:45:51.000Z,36.03
2018-05-17T01:48:19.215Z,41.33
2018-05-17T01:50:47.369Z,27.93
2018-05-17T01:53:15.452Z,37.60
2018-05-17T01:55:43.555Z,22.03
2018-05-17T01:58:11.682Z,27.93
2018-05-17T02:00:39.781Z,35.97
2018-05-17T02:03:09.167Z,32.13
2018-05-17T02:05:37.258Z,34.00
2018-05-17T02:08:05.359Z,23.17
2018-05-17T02:10:33.450Z,39.30
2018-05-17T02:13:01.898Z,24.73
2018-05-17T02:15:29.969Z,23.27
2018-05-17T02:17:59.111Z,25.47
2018-05-17T02:20:27.296Z,24.17
2018-05-17T02:22:55.392Z,31.33
2018-05-17T02:25:23.492Z,29.87
2018-05-17T02:27:51.576Z,27.17
2018-05-17T02:30:19.743Z,33.13
2018-05-17T02:32:47.767Z,18.03
2018-05-17T02:35:16.167Z,27.93
2018-05-17T02:37:44.908Z,23.23
2018-05-17T02:40:13.195Z,33.50
2018-05-17T02:42:41.263Z,31.43
2018-05-17T02:45:09.376Z,23.80
2018-05-17T02:47:37.448Z,27.03
2018-05-17T02:50:05.549Z,22.73
2018-05-17T02:52:34.403Z,33.67
2018-05-17T02:55:02.588Z,29.70
2018-05-17T02:57:30.651Z,26.73
2018-05-17T02:59:58.768Z,29.80
2018-05-17T03:02:26.887Z,29.83
2018-05-17T03:04:54.990Z,29.90
2018-05-17T03:07:23.721Z,40.40
2018-05-17T03:09:51.843Z,28.00
2018-05-17T03:12:20.851Z,33.70
2018-05-17T03:14:49.740Z,28.20
2018-05-17T03:17:17.864Z,31.93
2018-05-17T03:19:47.023Z,26.57
2018-05-17T03:22:16.269Z,29.63
2018-05-17T03:24:44.794Z,27.80
2018-05-17T03:27:12.853Z,28.87
2018-05-17T03:29:40.992Z,24.67
2018-05-17T03:32:09.111Z,33.57
2018-05-17T03:34:37.969Z,24.33
2018-05-17T03:37:06.829Z,21.63
2018-05-17T03:39:34.928Z,30.87
2018-05-17T03:42:03.036Z,32.43
2018-05-17T03:44:31.123Z,24.67
2018-05-17T03:46:59.275Z,27.10
2018-05-17T03:49:27.410Z,33.67
2018-05-17T03:51:55.513Z,29.33
2018-05-17T03:54:23.607Z,18.80
2018-05-17T03:56:51.680Z,24.47
2018-05-17T03:59:20.528Z,24.17
2018-05-17T04:02:09.680Z,27.87
2018-05-17T04:04:56.406Z,24.83
2018-05-17T04:07:25.267Z,36.20
2018-05-17T04:09:54.244Z,21.93
2018-05-17T04:12:22.540Z,24.77
2018-05-17T04:14:52.466Z,24.53
2018-05-17T04:17:20.536Z,29.17
2018-05-17T04:19:48.608Z,29.53
2018-05-17T04:22:16.802Z,28.00
2018-05-17T04:24:45.801Z,33.67
2018-05-17T04:27:14.563Z,47.43
2018-05-17T04:29:42.640Z,26.17
2018-05-17T04:32:10.723Z,18.90
2018-05-17T04:34:38.796Z,24.07
2018-05-17T04:37:07.974Z,20.00
2018-05-17T04:39:36.047Z,23.23
2018-05-17T04:42:04.117Z,30.17
2018-05-17T04:44:32.209Z,22.17
2018-05-17T04:47:00.499Z,22.63
2018-05-17T04:49:28.610Z,27.80
2018-05-17T04:51:56.849Z,21.17
2018-05-17T04:54:25.214Z,28.27
2018-05-17T04:56:54.137Z,27.53
2018-05-17T04:59:22.224Z,30.23
2018-05-17T05:01:50.417Z,22.77
2018-05-17T05:04:18.829Z,23.73
2018-05-17T05:06:48.080Z,35.77
2018-05-17T05:09:16.376Z,29.03
2018-05-17T05:11:44.494Z,26.20
2018-05-17T05:14:12.587Z,30.77
2018-05-17T05:16:40.715Z,24.57
2018-05-17T05:19:08.821Z,27.53
2018-05-17T05:21:37.853Z,22.17
2018-05-17T05:24:05.955Z,29.00
2018-05-17T05:26:34.183Z,39.10
2018-05-17T05:29:03.118Z,31.00
2018-05-17T05:31:32.856Z,42.93
2018-05-17T05:34:01.017Z,35.27
2018-05-17T05:36:29.096Z,32.90
2018-05-17T05:38:57.183Z,34.30
2018-05-17T05:41:26.086Z,31.53
2018-05-17T05:43:54.928Z,27.30
2018-05-17T05:46:23.924Z,34.67
2018-05-17T05:48:52.016Z,27.57
2018-05-17T05:51:20.224Z,26.07
2018-05-17T05:53:49.757Z,29.93
2018-05-17T05:56:18.116Z,26.20
2018-05-17T05:58:47.082Z,30.53
2018-05-17T06:01:15.268Z,29.40
2018-05-17T06:03:43.467Z,24.30
2018-05-17T06:06:11.568Z,36.80
2018-05-17T06:08:39.662Z,37.33
2018-05-17T06:11:08.694Z,38.87
2018-05-17T06:13:38.480Z,45.67
2018-05-17T06:16:06.564Z,41.57
2018-05-17T06:18:35.435Z,31.50
2018-05-17T06:21:03.511Z,37.10
2018-05-17T06:23:31.592Z,32.47
2018-05-17T06:25:59.696Z,41.47
2018-05-17T06:28:27.805Z,48.60
2018-05-17T06:30:55.908Z,34.90
2018-05-17T06:33:23.988Z,42.70
2018-05-17T06:35:52.084Z,43.40
2018-05-17T06:38:20.157Z,42.17
2018-05-17T06:40:48.256Z,50.97
2018-05-17T06:43:16.348Z,51.50
2018-05-17T06:45:44.447Z,40.83
2018-05-17T06:48:12.541Z,49.47
2018-05-17T06:50:41.167Z,48.93
2018-05-17T06:53:12.332Z,52.00
2018-05-17T06:55:40.447Z,41.27
2018-05-17T06:58:08.535Z,43.20
2018-05-17T07:00:36.686Z,46.40
2018-05-17T07:03:04.774Z,41.40
2018-05-17T07:05:32.999Z,45.47
2018-05-17T07:08:01.104Z,52.77
2018-05-17T07:10:29.222Z,71.10
2018-05-17T07:12:57.305Z,25.83
2018-05-17T07:15:25.400Z,36.23
2018-05-17T07:17:54.776Z,45.47
2018-05-17T07:20:22.747Z,56.43
2018-05-17T07:22:50.831Z,55.87
2018-05-17T07:25:18.979Z,61.30
2018-05-17T07:27:47.259Z,44.30
2018-05-17T07:30:15.576Z,54.57
2018-05-17T07:32:43.687Z,62.17
2018-05-17T07:35:12.619Z,62.67
2018-05-17T07:37:40.708Z,52.93
2018-05-17T07:40:08.830Z,66.03
2018-05-17T07:42:36.920Z,61.77
2018-05-17T07:45:05.009Z,58.13
2018-05-17T07:47:33.106Z,58.50
2018-05-17T07:50:01.979Z,62.50
2018-05-17T07:52:30.058Z,53.43
2018-05-17T07:55:00.940Z,52.10
2018-05-17T07:57:29.044Z,46.97
2018-05-17T07:59:57.160Z,54.13
2018-05-17T08:02:26.036Z,42.53
2018-05-17T08:04:54.136Z,48.57
2018-05-17T08:07:22.217Z,44.07
2018-05-17T08:09:50.536Z,50.63
2018-05-17T08:12:18.637Z,39.13
2018-05-17T08:14:46.713Z,42.43
2018-05-17T08:17:14.812Z,44.87
2018-05-17T08:19:42.939Z,37.87
2018-05-17T08:22:11.037Z,48.67
2018-05-17T08:24:39.868Z,50.77
2018-05-17T08:27:07.968Z,47.47
2018-05-17T08:29:36.041Z,42.40
2018-05-17T08:32:04.132Z,45.93
2018-05-17T08:34:32.972Z,36.70
2018-05-17T08:37:01.079Z,40.20
2018-05-17T08:39:29.159Z,50.40
2018-05-17T08:41:57.244Z,40.20
2018-05-17T08:44:25.328Z,38.03
2018-05-17T08:46:53.443Z,33.57
2018-05-17T08:49:22.468Z,31.27
2018-05-17T08:51:50.575Z,40.70
2018-05-17T08:54:18.692Z,35.07
2018-05-17T08:56:46.761Z,43.77
2018-05-17T08:59:17.803Z,46.30
2018-05-17T09:01:46.785Z,38.57
2018-05-17T09:04:14.888Z,49.43
2018-05-17T09:06:42.970Z,41.37
2018-05-17T09:09:11.833Z,53.97
2018-05-17T09:11:39.936Z,49.93
2018-05-17T09:14:08.017Z,44.53
2018-05-17T09:16:36.120Z,54.63
2018-05-17T09:19:04.199Z,62.70
2018-05-17T09:21:32.292Z,52.00
2018-05-17T09:24:00.382Z,50.40
2018-05-17T09:26:28.480Z,47.10
2018-05-17T09:28:57.320Z,50.20
2018-05-17T09:31:25.436Z,46.10
2018-05-17T09:33:54.287Z,41.67
2018-05-17T09:36:22.394Z,33.57
2018-05-17T09:38:52.204Z,35.77
2018-05-17T09:41:20.359Z,40.73
2018-05-17T09:43:48.408Z,30.53
2018-05-17T09:46:16.521Z,34.63
2018-05-17T09:48:45.124Z,28.70
2018-05-17T09:51:13.225Z,39.80
2018-05-17T09:53:43.287Z,31.53
2018-05-17T09:56:11.372Z,37.03
2018-05-17T09:58:39.535Z,26.07
2018-05-17T10:01:07.623Z,36.37
2018-05-17T10:03:35.711Z,37.83
2018-05-17T10:06:04.503Z,43.87
2018-05-17T10:08:32.592Z,41.20
2018-05-17T10:11:00.660Z,28.73
2018-05-17T10:13:28.764Z,31.63
2018-05-17T10:15:56.844Z,33.57
2018-05-17T10:18:24.921Z,38.57
2018-05-17T10:20:53.044Z,31.03
2018-05-17T10:23:21.128Z,42.23
2018-05-17T10:25:49.219Z,25.87
2018-05-17T10:28:18.024Z,25.50
2018-05-17T10:30:46.116Z,25.47
2018-05-17T10:33:14.187Z,16.70
2018-05-17T10:35:43.117Z,31.23
2018-05-17T10:38:11.224Z,27.43
2018-05-17T10:40:39.311Z,26.30
2018-05-17T10:43:07.408Z,27.80
2018-05-17T10:45:35.484Z,27.77
2018-05-17T10:48:03.576Z,28.10
2018-05-17T10:50:35.283Z,32.27
2018-05-17T10:53:03.394Z,25.03
2018-05-17T10:55:31.696Z,27.33
2018-05-17T10:58:00.070Z,24.00
2018-05-17T11:00:28.136Z,29.77
2018-05-17T11:02:56.229Z,23.63
2018-05-17T11:05:24.324Z,28.03
2018-05-17T11:07:52.426Z,31.10
2018-05-17T11:10:20.491Z,26.97
2018-05-17T11:12:48.597Z,30.83
2018-05-17T11:15:16.771Z,29.87
2018-05-17T11:17:44.797Z,32.67
2018-05-17T11:20:12.917Z,26.70
2018-05-17T11:22:41.000Z,32.30
2018-05-17T11:25:09.104Z,29.93
2018-05-17T11:27:37.181Z,27.77
2018-05-17T11:30:06.028Z,34.30
2018-05-17T11:32:34.100Z,26.97
2018-05-17T11:35:02.185Z,32.07
2018-05-17T11:37:30.496Z,27.37
2018-05-17T11:39:58.627Z,28.83
2018-05-17T11:42:30.380Z,32.30
2018-05-17T11:44:58.503Z,28.90
2018-05-17T11:47:26.573Z,20.70
2018-05-17T11:49:54.660Z,29.83
2018-05-17T11:52:24.440Z,37.63
2018-05-17T11:54:52.767Z,23.23
2018-05-17T11:57:21.490Z,24.13
2018-05-17T11:59:49.898Z,34.20
2018-05-17T12:02:17.989Z,25.73
2018-05-17T12:04:46.064Z,25.10
2018-05-17T12:07:15.130Z,25.87
2018-05-17T12:09:43.119Z,26.57
2018-05-17T12:12:12.022Z,34.50
2018-05-17T12:14:40.099Z,38.73
2018-05-17T12:17:08.325Z,21.90
2018-05-17T12:19:36.511Z,27.43
2018-05-17T12:22:04.950Z,22.30
2018-05-17T12:24:33.877Z,20.40
2018-05-17T12:27:01.963Z,22.40
2018-05-17T12:29:31.340Z,31.00
2018-05-17T12:32:00.451Z,26.80
2018-05-17T12:34:28.561Z,26.20
2018-05-17T12:36:58.205Z,24.23
2018-05-17T12:39:26.301Z,25.97
2018-05-17T12:41:54.422Z,27.77
2018-05-17T12:44:23.402Z,23.70
2018-05-17T12:46:56.213Z,19.23
2018-05-17T12:49:24.325Z,25.10
2018-05-17T12:51:52.620Z,20.47
2018-05-17T12:54:20.984Z,30.93
2018-05-17T12:56:49.115Z,21.70
2018-05-17T12:59:17.164Z,22.13
2018-05-17T13:01:45.260Z,21.87
2018-05-17T13:04:13.367Z,22.60
2018-05-17T13:06:47.049Z,25.03
2018-05-17T13:09:15.382Z,23.93
2018-05-17T13:11:44.315Z,26.40
2018-05-17T13:14:12.481Z,23.70
2018-05-17T13:16:40.670Z,21.23
2018-05-17T13:19:08.755Z,25.47
2018-05-17T13:21:36.837Z,27.90
2018-05-17T13:24:04.946Z,23.73
2018-05-17T13:26:34.108Z,29.57
2018-05-17T13:29:02.230Z,29.47
2018-05-17T13:31:30.461Z,19.20
2018-05-17T13:33:58.642Z,15.77
2018-05-17T13:36:26.964Z,25.53
2018-05-17T13:38:55.045Z,21.27
2018-05-17T13:41:23.264Z,16.13
2018-05-17T13:43:51.647Z,23.40
2018-05-17T13:46:19.795Z,19.33
2018-05-17T13:48:47.869Z,16.70
2018-05-17T13:51:16.782Z,26.57
2018-05-17T13:53:45.753Z,28.60
2018-05-17T13:56:14.391Z,24.87
2018-05-17T13:58:43.255Z,21.20
2018-05-17T14:01:12.240Z,19.43
2018-05-17T14:03:41.301Z,20.20
2018-05-17T14:06:09.894Z,19.90
2018-05-17T14:08:38.513Z,22.87
2018-05-17T14:11:06.848Z,23.93
2018-05-17T14:13:34.959Z,23.10
2018-05-17T14:16:03.147Z,23.87
2018-05-17T14:18:31.137Z,22.47
2018-05-17T14:20:59.900Z,17.63
2018-05-17T14:23:30.595Z,25.30
2018-05-17T14:25:59.623Z,24.70
2018-05-17T14:28:28.616Z,15.77
2018-05-17T14:30:56.746Z,26.70
2018-05-17T14:33:24.851Z,20.60
2018-05-17T14:35:52.949Z,19.47
2018-05-17T14:38:21.796Z,21.80
2018-05-17T14:40:50.797Z,21.93
2018-05-17T14:43:18.883Z,18.53
2018-05-17T14:45:47.193Z,28.53
2018-05-17T14:48:15.328Z,23.20
2018-05-17T14:50:43.575Z,17.83
2018-05-17T14:53:11.685Z,21.87
2018-05-17T14:55:39.785Z,13.50
2018-05-17T14:58:08.319Z,20.70
2018-05-17T15:00:37.155Z,17.00
2018-05-17T15:03:05.264Z,26.20
2018-05-17T15:05:33.676Z,17.33
2018-05-17T15:08:01.932Z,20.83
2018-05-17T15:10:30.037Z,17.57
2018-05-17T15:12:59.933Z,18.03
2018-05-17T15:15:28.308Z,22.17
2018-05-17T15:18:00.977Z,21.37
2018-05-17T15:20:29.328Z,22.83
2018-05-17T15:22:57.598Z,17.87
2018-05-17T15:25:26.461Z,16.27
2018-05-17T15:27:55.335Z,25.57
2018-05-17T15:30:24.448Z,21.27
2018-05-17T15:32:53.353Z,17.00
2018-05-17T15:35:21.439Z,24.70
2018-05-17T15:37:49.548Z,17.77
2018-05-17T15:40:17.643Z,20.20
2018-05-17T15:42:45.925Z,22.87
2018-05-17T15:45:13.995Z,19.40
2018-05-17T15:47:42.112Z,20.00
2018-05-17T15:50:10.208Z,19.80
2018-05-17T15:52:39.095Z,31.77
2018-05-17T15:55:07.199Z,12.73
2018-05-17T15:57:35.336Z,22.87
2018-05-17T16:00:03.450Z,29.77
2018-05-17T16:02:31.535Z,15.70
2018-05-17T16:05:00.380Z,19.43
2018-05-17T16:07:28.538Z,22.33
2018-05-17T16:09:57.062Z,23.43
2018-05-17T16:12:25.288Z,23.03
2018-05-17T16:14:53.433Z,21.10
2018-05-17T16:17:21.485Z,25.27
2018-05-17T16:19:49.564Z,21.10
2018-05-17T16:22:18.430Z,24.83
2018-05-17T16:24:46.521Z,18.03
2018-05-17T16:27:14.602Z,33.80
2018-05-17T16:29:42.720Z,21.83
2018-05-17T16:32:10.793Z,22.50
2018-05-17T16:34:38.899Z,21.37
2018-05-17T16:37:06.989Z,15.63
2018-05-17T16:39:35.088Z,50.87
2018-05-17T16:42:03.173Z,21.70
2018-05-17T16:44:31.283Z,27.17
2018-05-17T16:46:59.359Z,26.07
2018-05-17T16:49:27.439Z,21.67
2018-05-17T16:51:55.526Z,26.83
2018-05-17T16:54:24.442Z,44.23
2018-05-17T16:56:52.460Z,33.77
2018-05-17T16:59:21.496Z,27.80
2018-05-17T17:01:49.597Z,21.73
2018-05-17T17:04:18.489Z,22.73
2018-05-17T17:06:46.930Z,27.03
2018-05-17T17:09:15.015Z,17.90
2018-05-17T17:11:43.123Z,26.90
2018-05-17T17:14:11.711Z,24.30
2018-05-17T17:16:40.034Z,22.20
2018-05-17T17:19:08.128Z,25.10
2018-05-17T17:21:36.224Z,18.07
2018-05-17T17:24:04.313Z,24.23
2018-05-17T17:26:32.425Z,28.63
2018-05-17T17:29:01.966Z,26.80
2018-05-17T17:31:30.546Z,23.73
2018-05-17T17:33:58.819Z,51.50
2018-05-17T17:36:26.939Z,25.57
2018-05-17T17:38:55.084Z,19.13
2018-05-17T17:41:23.185Z,23.10
2018-05-17T17:43:51.344Z,22.53
2018-05-17T17:46:19.431Z,31.77
2018-05-17T17:48:47.513Z,26.67
2018-05-17T17:51:15.643Z,26.10
2018-05-17T17:53:43.803Z,25.67
2018-05-17T17:56:11.907Z,19.90
2018-05-17T17:58:40.029Z,25.03
2018-05-17T18:01:08.110Z,28.10
2018-05-17T18:03:36.219Z,25.63
2018-05-17T18:06:04.287Z,25.20
2018-05-17T18:08:33.340Z,22.90
2018-05-17T18:11:02.412Z,29.97
2018-05-17T18:13:31.423Z,25.63
2018-05-17T18:16:00.538Z,22.70
2018-05-17T18:18:28.923Z,26.60
2018-05-17T18:20:57.002Z,31.87
2018-05-17T18:23:25.079Z,37.27
2018-05-17T18:25:53.192Z,25.20
2018-05-17T18:28:21.279Z,27.23
2018-05-17T18:30:50.140Z,28.93
2018-05-17T18:33:18.236Z,22.93
2018-05-17T18:35:47.520Z,20.57
2018-05-17T18:38:15.607Z,24.40
2018-05-17T18:40:43.705Z,16.87
2018-05-17T18:43:11.906Z,30.07
2018-05-17T18:45:40.669Z,23.53
2018-05-17T18:48:08.996Z,29.73
2018-05-17T18:50:37.168Z,31.37
2018-05-17T18:53:05.620Z,29.80
2018-05-17T18:55:33.697Z,29.07
2018-05-17T18:58:01.797Z,32.40
2018-05-17T19:00:29.952Z,32.87
2018-05-17T19:02:58.079Z,27.30
2018-05-17T19:05:26.935Z,26.93
2018-05-17T19:07:56.021Z,30.90
2018-05-17T19:10:24.339Z,26.27
2018-05-17T19:12:52.559Z,26.67
2018-05-17T19:15:20.656Z,25.03
2018-05-17T19:17:50.875Z,35.37
2018-05-17T19:20:19.037Z,24.00
2018-05-17T19:22:47.156Z,32.03
2018-05-17T19:25:15.291Z,21.70
2018-05-17T19:27:43.375Z,38.63
2018-05-17T19:30:13.535Z,27.10
2018-05-17T19:32:41.640Z,22.43
2018-05-17T19:35:10.668Z,21.60
2018-05-17T19:37:38.786Z,35.73
2018-05-17T19:40:09.970Z,25.40
2018-05-17T19:42:38.095Z,26.83
2018-05-17T19:45:06.375Z,28.10
2018-05-17T19:47:34.524Z,20.50
2018-05-17T19:50:06.997Z,26.03
2018-05-17T19:52:37.175Z,23.40
2018-05-17T19:55:05.308Z,27.30
2018-05-17T19:57:33.418Z,24.40
2018-05-17T20:00:02.753Z,28.30
2018-05-17T20:02:31.608Z,28.20
2018-05-17T20:04:59.748Z,31.13
2018-05-17T20:07:30.822Z,28.83
2018-05-17T20:09:59.681Z,39.17
2018-05-17T20:12:30.447Z,26.47
2018-05-17T20:14:58.655Z,31.43
2018-05-17T20:17:26.739Z,25.77
2018-05-17T20:19:54.817Z,28.47
2018-05-17T20:22:23.804Z,28.17
2018-05-17T20:24:52.687Z,25.00
2018-05-17T20:27:20.895Z,33.37
2018-05-17T20:29:49.048Z,30.50
2018-05-17T20:32:17.999Z,33.60
2018-05-17T20:34:47.016Z,29.67
2018-05-17T20:37:15.375Z,28.40
2018-05-17T20:39:43.580Z,34.77
2018-05-17T20:42:12.631Z,26.83
2018-05-17T20:44:40.897Z,34.10
2018-05-17T20:47:09.316Z,44.33
2018-05-17T20:49:38.965Z,23.33
2018-05-17T20:52:08.590Z,34.13
2018-05-17T20:54:37.584Z,27.27
2018-05-17T20:57:06.804Z,33.37
2018-05-17T20:59:35.687Z,28.97
2018-05-17T21:02:03.832Z,22.93
2018-05-17T21:04:32.915Z,27.50
2018-05-17T21:07:01.978Z,28.77
2018-05-17T21:09:30.310Z,31.83
2018-05-17T21:11:58.551Z,63.10
2018-05-17T21:14:26.870Z,33.63
2018-05-17T21:16:54.965Z,25.63
2018-05-17T21:19:23.847Z,30.70
2018-05-17T21:21:51.859Z,25.73
2018-05-17T21:24:20.699Z,26.00
2018-05-17T21:26:49.095Z,20.33
2018-05-17T21:29:17.251Z,31.67
2018-05-17T21:31:45.672Z,21.40
2018-05-17T21:34:13.780Z,29.20
2018-05-17T21:36:41.882Z,29.87
2018-05-17T21:39:10.204Z,31.07
2018-05-17T21:41:39.137Z,23.20
2018-05-17T21:44:07.983Z,22.80
2018-05-17T21:46:36.953Z,33.17
2018-05-17T21:49:05.072Z,33.33
2018-05-17T21:51:33.681Z,25.57
2018-05-17T21:54:01.844Z,28.70
2018-05-17T21:56:30.893Z,30.73
2018-05-17T21:58:59.255Z,29.97
2018-05-17T22:01:27.485Z,27.17
2018-05-17T22:03:55.971Z,27.53
2018-05-17T22:06:24.163Z,28.50
2018-05-17T22:08:52.383Z,22.43
2018-05-17T22:11:20.456Z,31.67
2018-05-17T22:13:48.552Z,23.93
2018-05-17T22:16:17.529Z,19.93
2018-05-17T22:18:45.604Z,29.07
2018-05-17T22:21:13.687Z,23.53
2018-05-17T22:23:42.056Z,29.87
2018-05-17T22:26:10.292Z,27.97
2018-05-17T22:28:38.369Z,18.30
2018-05-17T22:31:06.595Z,28.50
2018-05-17T22:33:35.445Z,28.80
2018-05-17T22:36:03.539Z,16.77
2018-05-17T22:38:32.391Z,33.00
2018-05-17T22:41:00.758Z,22.37
2018-05-17T22:43:29.012Z,23.60
2018-05-17T22:45:57.109Z,25.77
2018-05-17T22:48:26.028Z,27.93
2018-05-17T22:50:54.274Z,43.93
2018-05-17T22:53:22.511Z,30.67
2018-05-17T22:55:50.768Z,24.47
2018-05-17T22:58:30.752Z,23.80
2018-05-17T23:00:58.840Z,25.30
2018-05-17T23:03:27.230Z,31.43
2018-05-17T23:05:55.320Z,21.93
2018-05-17T23:08:23.403Z,39.03
2018-05-17T23:10:51.488Z,30.30
2018-05-17T23:13:19.592Z,24.00
2018-05-17T23:15:48.813Z,24.17
2018-05-17T23:18:16.889Z,23.13
2018-05-17T23:20:45.748Z,25.30
2018-05-17T23:23:13.968Z,28.33
2018-05-17T23:25:42.373Z,24.47
2018-05-17T23:28:10.468Z,26.90
2018-05-17T23:30:40.225Z,22.40
2018-05-17T23:33:08.348Z,23.23
2018-05-17T23:35:37.172Z,29.37
2018-05-17T23:38:05.504Z,19.70
2018-05-17T23:43:44.087Z,28.67
2018-05-17T23:46:12.409Z,30.67
2018-05-17T23:48:44.124Z,21.93
2018-05-17T23:51:13.123Z,27.63
2018-05-17T23:53:41.233Z,27.53
2018-05-17T23:56:10.495Z,23.43
2018-05-17T23:58:40.541Z,23.73
